Terminal Aerodrome Forecast
Issued by NWS

Current Version | Previous Version | Text Only | Print | Product List | Glossary On
Versions: 1 2 3 4 5 6 7 8 9 10 11 12 13 14 15
000
FTUS45 KRIW 231131
TAFRKS
TAF
KRKS 231131Z 2312/2412 06015G23KT P6SM SKC WS010/06030KT
     FM231600 07012KT P6SM SKC
     FM231900 VRB06KT P6SM SKC
     FM240000 28011KT P6SM SKC
     FM240600 05011KT P6SM SKC=

USA.gov is the U.S. government's official web portal to all federal, state and local government web resources and services.